sensor_id;sensor_type;location;lat;lon;timestamp;temperature;humidity
74811;DHT22;63340;48.404;-4.506;2022-10-16T00:01:38;16.26;74.24
74811;DHT22;63340;48.404;-4.506;2022-10-16T00:04:04;16.32;74.15
74811;DHT22;63340;48.404;-4.506;2022-10-16T00:06:30;16.32;74.18
74811;DHT22;63340;48.404;-4.506;2022-10-16T00:08:56;16.29;74.12
74811;DHT22;63340;48.404;-4.506;2022-10-16T00:11:28;16.31;74.27
74811;DHT22;63340;48.404;-4.506;2022-10-16T00:13:59;16.29;74.33
74811;DHT22;63340;48.404;-4.506;2022-10-16T00:16:25;16.28;74.37
74811;DHT22;63340;48.404;-4.506;2022-10-16T00:18:51;16.22;74.45
74811;DHT22;63340;48.404;-4.506;2022-10-16T00:21:20;16.22;74.51
74811;DHT22;63340;48.404;-4.506;2022-10-16T00:23:46;16.22;74.58
74811;DHT22;63340;48.404;-4.506;2022-10-16T00:26:14;16.22;74.44
74811;DHT22;63340;48.404;-4.506;2022-10-16T00:28:40;16.17;74.80
74811;DHT22;63340;48.404;-4.506;2022-10-16T00:31:08;16.20;74.63
74811;DHT22;63340;48.404;-4.506;2022-10-16T00:33:36;16.20;74.85
74811;DHT22;63340;48.404;-4.506;2022-10-16T00:36:03;16.17;75.01
74811;DHT22;63340;48.404;-4.506;2022-10-16T00:38:29;16.18;75.07
74811;DHT22;63340;48.404;-4.506;2022-10-16T00:40:54;16.17;74.99
74811;DHT22;63340;48.404;-4.506;2022-10-16T00:43:53;16.17;75.01
74811;DHT22;63340;48.404;-4.506;2022-10-16T00:48:55;16.20;74.80
74811;DHT22;63340;48.404;-4.506;2022-10-16T00:51:29;16.20;74.86
74811;DHT22;63340;48.404;-4.506;2022-10-16T00:53:56;16.12;75.37
74811;DHT22;63340;48.404;-4.506;2022-10-16T00:56:21;16.14;75.20
74811;DHT22;63340;48.404;-4.506;2022-10-16T00:58:47;16.11;75.25
74811;DHT22;63340;48.404;-4.506;2022-10-16T01:01:13;16.10;75.30
74811;DHT22;63340;48.404;-4.506;2022-10-16T01:03:38;16.11;75.44
74811;DHT22;63340;48.404;-4.506;2022-10-16T01:13:55;16.07;75.74
74811;DHT22;63340;48.404;-4.506;2022-10-16T01:16:35;16.05;75.91
74811;DHT22;63340;48.404;-4.506;2022-10-16T01:21:40;16.07;75.89
74811;DHT22;63340;48.404;-4.506;2022-10-16T01:24:17;16.08;75.72
74811;DHT22;63340;48.404;-4.506;2022-10-16T01:27:09;16.08;76.01
74811;DHT22;63340;48.404;-4.506;2022-10-16T01:40:25;16.11;75.93
74811;DHT22;63340;48.404;-4.506;2022-10-16T01:43:05;16.10;75.92
74811;DHT22;63340;48.404;-4.506;2022-10-16T01:45:33;16.17;75.61
74811;DHT22;63340;48.404;-4.506;2022-10-16T01:48:02;16.21;75.27
74811;DHT22;63340;48.404;-4.506;2022-10-16T01:50:32;16.20;75.44
74811;DHT22;63340;48.404;-4.506;2022-10-16T01:53:02;16.20;75.54
74811;DHT22;63340;48.404;-4.506;2022-10-16T01:55:35;16.18;75.55
74811;DHT22;63340;48.404;-4.506;2022-10-16T01:58:03;16.17;75.48
74811;DHT22;63340;48.404;-4.506;2022-10-16T02:00:29;16.15;75.78
74811;DHT22;63340;48.404;-4.506;2022-10-16T02:02:58;16.20;75.59
74811;DHT22;63340;48.404;-4.506;2022-10-16T02:05:42;16.17;75.35
74811;DHT22;63340;48.404;-4.506;2022-10-16T02:08:10;16.24;75.14
74811;DHT22;63340;48.404;-4.506;2022-10-16T02:10:37;16.24;74.96
74811;DHT22;63340;48.404;-4.506;2022-10-16T02:13:10;16.26;75.01
74811;DHT22;63340;48.404;-4.506;2022-10-16T02:15:37;16.29;74.95
74811;DHT22;63340;48.404;-4.506;2022-10-16T02:18:05;16.28;75.00
74811;DHT22;63340;48.404;-4.506;2022-10-16T02:20:36;16.26;75.21
74811;DHT22;63340;48.404;-4.506;2022-10-16T02:23:03;16.25;75.19
74811;DHT22;63340;48.404;-4.506;2022-10-16T02:25:37;16.24;75.25
74811;DHT22;63340;48.404;-4.506;2022-10-16T02:28:09;16.21;74.95
74811;DHT22;63340;48.404;-4.506;2022-10-16T02:30:42;16.20;75.13
74811;DHT22;63340;48.404;-4.506;2022-10-16T02:33:10;16.14;75.63
74811;DHT22;63340;48.404;-4.506;2022-10-16T02:35:39;16.12;75.58
74811;DHT22;63340;48.404;-4.506;2022-10-16T02:38:06;16.12;75.52
74811;DHT22;63340;48.404;-4.506;2022-10-16T02:40:33;16.11;75.94
74811;DHT22;63340;48.404;-4.506;2022-10-16T02:42:58;16.15;75.60
74811;DHT22;63340;48.404;-4.506;2022-10-16T02:45:24;16.14;75.61
74811;DHT22;63340;48.404;-4.506;2022-10-16T02:47:51;16.17;75.40
74811;DHT22;63340;48.404;-4.506;2022-10-16T02:50:16;16.18;75.28
74811;DHT22;63340;48.404;-4.506;2022-10-16T02:52:42;16.14;75.16
74811;DHT22;63340;48.404;-4.506;2022-10-16T02:55:08;16.14;75.47
74811;DHT22;63340;48.404;-4.506;2022-10-16T02:57:33;16.14;75.72
74811;DHT22;63340;48.404;-4.506;2022-10-16T02:59:59;16.12;75.57
74811;DHT22;63340;48.404;-4.506;2022-10-16T03:02:24;16.14;75.74
74811;DHT22;63340;48.404;-4.506;2022-10-16T03:04:49;16.14;75.47
74811;DHT22;63340;48.404;-4.506;2022-10-16T03:07:15;16.15;75.60
74811;DHT22;63340;48.404;-4.506;2022-10-16T03:09:41;16.20;75.32
74811;DHT22;63340;48.404;-4.506;2022-10-16T03:12:06;16.20;75.16
74811;DHT22;63340;48.404;-4.506;2022-10-16T03:14:32;16.22;75.20
74811;DHT22;63340;48.404;-4.506;2022-10-16T03:16:58;16.22;75.24
74811;DHT22;63340;48.404;-4.506;2022-10-16T03:19:23;16.24;74.99
74811;DHT22;63340;48.404;-4.506;2022-10-16T03:21:49;16.26;74.58
74811;DHT22;63340;48.404;-4.506;2022-10-16T03:24:15;16.26;74.48
74811;DHT22;63340;48.404;-4.506;2022-10-16T03:26:40;16.29;74.76
74811;DHT22;63340;48.404;-4.506;2022-10-16T03:29:06;16.29;74.65
74811;DHT22;63340;48.404;-4.506;2022-10-16T03:31:32;16.25;74.63
74811;DHT22;63340;48.404;-4.506;2022-10-16T03:33:57;16.28;74.60
74811;DHT22;63340;48.404;-4.506;2022-10-16T03:36:23;16.25;74.42
74811;DHT22;63340;48.404;-4.506;2022-10-16T03:38:48;16.26;74.58
74811;DHT22;63340;48.404;-4.506;2022-10-16T03:41:14;16.25;74.56
74811;DHT22;63340;48.404;-4.506;2022-10-16T03:43:39;16.28;74.50
74811;DHT22;63340;48.404;-4.506;2022-10-16T03:46:04;16.26;74.49
74811;DHT22;63340;48.404;-4.506;2022-10-16T03:48:30;16.28;74.48
74811;DHT22;63340;48.404;-4.506;2022-10-16T03:50:55;16.28;74.16
74811;DHT22;63340;48.404;-4.506;2022-10-16T03:53:21;16.26;74.10
74811;DHT22;63340;48.404;-4.506;2022-10-16T03:55:46;16.25;73.64
74811;DHT22;63340;48.404;-4.506;2022-10-16T03:58:12;16.21;73.84
74811;DHT22;63340;48.404;-4.506;2022-10-16T04:00:42;16.20;73.82
74811;DHT22;63340;48.404;-4.506;2022-10-16T04:03:07;16.17;73.51
74811;DHT22;63340;48.404;-4.506;2022-10-16T04:05:33;16.15;73.56
74811;DHT22;63340;48.404;-4.506;2022-10-16T04:07:58;16.14;73.67
74811;DHT22;63340;48.404;-4.506;2022-10-16T04:10:24;16.12;73.78
74811;DHT22;63340;48.404;-4.506;2022-10-16T04:12:49;16.14;73.89
74811;DHT22;63340;48.404;-4.506;2022-10-16T04:15:14;16.14;73.87
74811;DHT22;63340;48.404;-4.506;2022-10-16T04:17:40;16.14;73.63
74811;DHT22;63340;48.404;-4.506;2022-10-16T04:20:05;16.14;73.68
74811;DHT22;63340;48.404;-4.506;2022-10-16T04:22:31;16.12;73.95
74811;DHT22;63340;48.404;-4.506;2022-10-16T04:24:56;16.12;74.15
74811;DHT22;63340;48.404;-4.506;2022-10-16T04:27:22;16.15;74.02
74811;DHT22;63340;48.404;-4.506;2022-10-16T04:29:47;16.14;74.10
74811;DHT22;63340;48.404;-4.506;2022-10-16T04:32:13;16.14;74.08
74811;DHT22;63340;48.404;-4.506;2022-10-16T04:34:39;16.18;74.22
74811;DHT22;63340;48.404;-4.506;2022-10-16T04:37:05;16.15;74.32
74811;DHT22;63340;48.404;-4.506;2022-10-16T04:39:30;16.17;74.29
74811;DHT22;63340;48.404;-4.506;2022-10-16T04:41:56;16.21;74.45
74811;DHT22;63340;48.404;-4.506;2022-10-16T04:44:21;16.21;74.58
74811;DHT22;63340;48.404;-4.506;2022-10-16T04:46:49;16.20;74.55
74811;DHT22;63340;48.404;-4.506;2022-10-16T04:49:15;16.22;74.58
74811;DHT22;63340;48.404;-4.506;2022-10-16T04:51:40;16.22;74.62
74811;DHT22;63340;48.404;-4.506;2022-10-16T04:54:05;16.24;74.68
74811;DHT22;63340;48.404;-4.506;2022-10-16T04:56:31;16.26;74.40
74811;DHT22;63340;48.404;-4.506;2022-10-16T04:58:56;16.25;74.48
74811;DHT22;63340;48.404;-4.506;2022-10-16T05:01:21;16.26;74.46
74811;DHT22;63340;48.404;-4.506;2022-10-16T05:03:47;16.28;74.44
74811;DHT22;63340;48.404;-4.506;2022-10-16T05:06:12;16.29;74.51
74811;DHT22;63340;48.404;-4.506;2022-10-16T05:08:38;16.31;74.36
74811;DHT22;63340;48.404;-4.506;2022-10-16T05:11:03;16.31;74.47
74811;DHT22;63340;48.404;-4.506;2022-10-16T05:13:29;16.28;74.47
74811;DHT22;63340;48.404;-4.506;2022-10-16T05:15:54;16.26;74.35
74811;DHT22;63340;48.404;-4.506;2022-10-16T05:18:19;16.26;74.63
74811;DHT22;63340;48.404;-4.506;2022-10-16T05:20:45;16.29;74.65
74811;DHT22;63340;48.404;-4.506;2022-10-16T05:23:11;16.28;74.78
74811;DHT22;63340;48.404;-4.506;2022-10-16T05:25:37;16.29;74.66
74811;DHT22;63340;48.404;-4.506;2022-10-16T05:28:02;16.25;74.88
74811;DHT22;63340;48.404;-4.506;2022-10-16T05:30:28;16.24;74.88
74811;DHT22;63340;48.404;-4.506;2022-10-16T05:32:53;16.22;74.84
74811;DHT22;63340;48.404;-4.506;2022-10-16T05:35:19;16.24;74.84
74811;DHT22;63340;48.404;-4.506;2022-10-16T05:37:45;16.25;74.81
74811;DHT22;63340;48.404;-4.506;2022-10-16T05:40:11;16.26;74.81
74811;DHT22;63340;48.404;-4.506;2022-10-16T05:42:38;16.28;74.70
74811;DHT22;63340;48.404;-4.506;2022-10-16T05:45:05;16.26;74.77
74811;DHT22;63340;48.404;-4.506;2022-10-16T05:47:31;16.26;74.80
74811;DHT22;63340;48.404;-4.506;2022-10-16T05:49:56;16.21;75.07
74811;DHT22;63340;48.404;-4.506;2022-10-16T05:52:22;16.20;75.08
74811;DHT22;63340;48.404;-4.506;2022-10-16T05:54:47;16.14;75.23
74811;DHT22;63340;48.404;-4.506;2022-10-16T05:57:12;16.12;75.29
74811;DHT22;63340;48.404;-4.506;2022-10-16T05:59:38;16.11;75.28
74811;DHT22;63340;48.404;-4.506;2022-10-16T06:02:03;16.11;75.28
74811;DHT22;63340;48.404;-4.506;2022-10-16T06:04:29;16.11;75.33
74811;DHT22;63340;48.404;-4.506;2022-10-16T06:06:58;16.14;75.30
74811;DHT22;63340;48.404;-4.506;2022-10-16T06:09:25;16.15;75.14
74811;DHT22;63340;48.404;-4.506;2022-10-16T06:11:50;16.18;75.13
74811;DHT22;63340;48.404;-4.506;2022-10-16T06:14:16;16.17;75.23
74811;DHT22;63340;48.404;-4.506;2022-10-16T06:16:41;16.24;75.05
74811;DHT22;63340;48.404;-4.506;2022-10-16T06:19:07;16.24;75.00
74811;DHT22;63340;48.404;-4.506;2022-10-16T06:21:33;16.25;74.88
74811;DHT22;63340;48.404;-4.506;2022-10-16T06:23:59;16.26;74.74
74811;DHT22;63340;48.404;-4.506;2022-10-16T06:26:27;16.28;74.66
74811;DHT22;63340;48.404;-4.506;2022-10-16T06:28:54;16.26;74.61
74811;DHT22;63340;48.404;-4.506;2022-10-16T06:31:20;16.26;74.49
74811;DHT22;63340;48.404;-4.506;2022-10-16T06:33:50;16.25;74.39
74811;DHT22;63340;48.404;-4.506;2022-10-16T06:36:16;16.26;74.33
74811;DHT22;63340;48.404;-4.506;2022-10-16T06:38:42;16.25;74.19
74811;DHT22;63340;48.404;-4.506;2022-10-16T06:41:11;16.22;74.24
74811;DHT22;63340;48.404;-4.506;2022-10-16T06:43:37;16.21;74.12
74811;DHT22;63340;48.404;-4.506;2022-10-16T06:46:04;16.20;74.22
74811;DHT22;63340;48.404;-4.506;2022-10-16T06:48:30;16.24;74.25
74811;DHT22;63340;48.404;-4.506;2022-10-16T06:51:09;16.21;74.35
74811;DHT22;63340;48.404;-4.506;2022-10-16T06:53:36;16.20;74.21
74811;DHT22;63340;48.404;-4.506;2022-10-16T06:56:13;16.21;74.27
74811;DHT22;63340;48.404;-4.506;2022-10-16T06:58:39;16.20;74.22
74811;DHT22;63340;48.404;-4.506;2022-10-16T07:01:05;16.22;74.13
74811;DHT22;63340;48.404;-4.506;2022-10-16T07:03:31;16.22;74.03
74811;DHT22;63340;48.404;-4.506;2022-10-16T07:05:57;16.21;74.04
74811;DHT22;63340;48.404;-4.506;2022-10-16T07:08:26;16.21;73.86
74811;DHT22;63340;48.404;-4.506;2022-10-16T07:10:58;16.21;74.01
74811;DHT22;63340;48.404;-4.506;2022-10-16T07:13:24;16.21;73.95
74811;DHT22;63340;48.404;-4.506;2022-10-16T07:15:50;16.21;73.88
74811;DHT22;63340;48.404;-4.506;2022-10-16T07:18:15;16.21;73.97
74811;DHT22;63340;48.404;-4.506;2022-10-16T07:20:41;16.25;73.95
74811;DHT22;63340;48.404;-4.506;2022-10-16T07:23:06;16.22;73.92
74811;DHT22;63340;48.404;-4.506;2022-10-16T07:25:32;16.25;73.87
74811;DHT22;63340;48.404;-4.506;2022-10-16T07:27:57;16.25;73.91
74811;DHT22;63340;48.404;-4.506;2022-10-16T07:30:22;16.26;73.99
74811;DHT22;63340;48.404;-4.506;2022-10-16T07:32:48;16.28;73.95
74811;DHT22;63340;48.404;-4.506;2022-10-16T07:35:13;16.29;73.87
74811;DHT22;63340;48.404;-4.506;2022-10-16T07:37:39;16.22;73.99
74811;DHT22;63340;48.404;-4.506;2022-10-16T07:40:05;16.20;74.16
74811;DHT22;63340;48.404;-4.506;2022-10-16T07:42:30;16.14;74.34
74811;DHT22;63340;48.404;-4.506;2022-10-16T07:44:56;16.11;74.42
74811;DHT22;63340;48.404;-4.506;2022-10-16T07:47:21;16.07;74.45
74811;DHT22;63340;48.404;-4.506;2022-10-16T07:49:47;16.05;74.50
74811;DHT22;63340;48.404;-4.506;2022-10-16T07:52:12;16.01;74.58
74811;DHT22;63340;48.404;-4.506;2022-10-16T07:54:37;15.98;74.82
74811;DHT22;63340;48.404;-4.506;2022-10-16T07:57:03;15.98;74.80
74811;DHT22;63340;48.404;-4.506;2022-10-16T07:59:28;15.97;74.83
74811;DHT22;63340;48.404;-4.506;2022-10-16T08:01:54;15.90;75.05
74811;DHT22;63340;48.404;-4.506;2022-10-16T08:04:19;15.89;75.23
74811;DHT22;63340;48.404;-4.506;2022-10-16T08:06:44;15.91;75.34
74811;DHT22;63340;48.404;-4.506;2022-10-16T08:09:10;15.94;75.27
74811;DHT22;63340;48.404;-4.506;2022-10-16T08:11:35;15.98;75.34
74811;DHT22;63340;48.404;-4.506;2022-10-16T08:14:01;16.07;75.34
74811;DHT22;63340;48.404;-4.506;2022-10-16T08:16:26;16.12;75.11
74811;DHT22;63340;48.404;-4.506;2022-10-16T08:18:52;16.21;75.15
74811;DHT22;63340;48.404;-4.506;2022-10-16T08:21:19;16.25;75.30
74811;DHT22;63340;48.404;-4.506;2022-10-16T08:23:45;16.29;75.43
74811;DHT22;63340;48.404;-4.506;2022-10-16T08:26:12;16.31;75.20
74811;DHT22;63340;48.404;-4.506;2022-10-16T08:28:38;16.26;75.43
74811;DHT22;63340;48.404;-4.506;2022-10-16T08:33:36;16.26;75.43
74811;DHT22;63340;48.404;-4.506;2022-10-16T08:36:04;16.31;75.51
74811;DHT22;63340;48.404;-4.506;2022-10-16T08:38:30;16.31;75.44
74811;DHT22;63340;48.404;-4.506;2022-10-16T08:49:30;16.35;75.91
74811;DHT22;63340;48.404;-4.506;2022-10-16T08:51:56;16.41;75.87
74811;DHT22;63340;48.404;-4.506;2022-10-16T08:56:56;16.48;75.85
74811;DHT22;63340;48.404;-4.506;2022-10-16T08:59:22;16.51;75.76
74811;DHT22;63340;48.404;-4.506;2022-10-16T09:01:50;16.52;75.83
74811;DHT22;63340;48.404;-4.506;2022-10-16T09:04:43;16.52;75.88
74811;DHT22;63340;48.404;-4.506;2022-10-16T09:07:20;16.52;75.90
74811;DHT22;63340;48.404;-4.506;2022-10-16T09:17:32;16.62;75.89
74811;DHT22;63340;48.404;-4.506;2022-10-16T09:23:28;16.66;75.81
74811;DHT22;63340;48.404;-4.506;2022-10-16T09:25:55;16.72;75.67
74811;DHT22;63340;48.404;-4.506;2022-10-16T09:28:22;16.70;75.76
74811;DHT22;63340;48.404;-4.506;2022-10-16T09:30:48;16.69;75.81
74811;DHT22;63340;48.404;-4.506;2022-10-16T09:33:15;16.73;75.98
74811;DHT22;63340;48.404;-4.506;2022-10-16T09:35:44;16.75;75.84
74811;DHT22;63340;48.404;-4.506;2022-10-16T09:38:22;16.76;75.80
74811;DHT22;63340;48.404;-4.506;2022-10-16T09:40:48;16.81;75.76
74811;DHT22;63340;48.404;-4.506;2022-10-16T09:46:19;16.83;75.72
74811;DHT22;63340;48.404;-4.506;2022-10-16T09:48:50;16.84;75.64
74811;DHT22;63340;48.404;-4.506;2022-10-16T09:51:23;16.81;75.73
74811;DHT22;63340;48.404;-4.506;2022-10-16T09:54:15;16.84;75.64
74811;DHT22;63340;48.404;-4.506;2022-10-16T09:56:39;16.84;75.97
74811;DHT22;63340;48.404;-4.506;2022-10-16T09:59:12;16.86;75.89
74811;DHT22;63340;48.404;-4.506;2022-10-16T10:01:48;16.87;75.83
74811;DHT22;63340;48.404;-4.506;2022-10-16T10:04:15;16.90;75.85
74811;DHT22;63340;48.404;-4.506;2022-10-16T10:06:44;16.91;75.90
74811;DHT22;63340;48.404;-4.506;2022-10-16T10:09:17;16.93;75.93
74811;DHT22;63340;48.404;-4.506;2022-10-16T10:11:48;16.90;76.11
74811;DHT22;63340;48.404;-4.506;2022-10-16T10:19:29;16.90;76.26
74811;DHT22;63340;48.404;-4.506;2022-10-16T10:21:55;16.90;76.28
74811;DHT22;63340;48.404;-4.506;2022-10-16T10:24:20;16.96;76.40
74811;DHT22;63340;48.404;-4.506;2022-10-16T10:27:13;17.02;76.46
74811;DHT22;63340;48.404;-4.506;2022-10-16T10:44:05;17.13;77.12
74811;DHT22;63340;48.404;-4.506;2022-10-16T10:47:06;17.14;77.00
74811;DHT22;63340;48.404;-4.506;2022-10-16T11:01:01;17.20;77.36
74811;DHT22;63340;48.404;-4.506;2022-10-16T11:08:59;17.17;77.69
74811;DHT22;63340;48.404;-4.506;2022-10-16T11:11:36;17.16;77.93
74811;DHT22;63340;48.404;-4.506;2022-10-16T11:14:19;17.16;78.43
74811;DHT22;63340;48.404;-4.506;2022-10-16T11:16:53;17.18;78.18
74811;DHT22;63340;48.404;-4.506;2022-10-16T11:22:13;17.18;78.42
74811;DHT22;63340;48.404;-4.506;2022-10-16T11:24:45;17.18;78.53
74811;DHT22;63340;48.404;-4.506;2022-10-16T11:27:17;17.18;78.48
74811;DHT22;63340;48.404;-4.506;2022-10-16T11:30:06;17.16;78.62
74811;DHT22;63340;48.404;-4.506;2022-10-16T11:33:18;17.10;79.24
74811;DHT22;63340;48.404;-4.506;2022-10-16T11:40:58;17.02;80.09
74811;DHT22;63340;48.404;-4.506;2022-10-16T11:43:33;17.03;79.69
74811;DHT22;63340;48.404;-4.506;2022-10-16T11:46:08;17.04;79.92
74811;DHT22;63340;48.404;-4.506;2022-10-16T11:48:45;17.02;80.44
74811;DHT22;63340;48.404;-4.506;2022-10-16T11:51:14;16.96;80.68
74811;DHT22;63340;48.404;-4.506;2022-10-16T11:56:07;16.94;81.21
74811;DHT22;63340;48.404;-4.506;2022-10-16T11:58:41;16.99;80.93
74811;DHT22;63340;48.404;-4.506;2022-10-16T12:09:24;17.11;80.72
74811;DHT22;63340;48.404;-4.506;2022-10-16T12:11:51;17.10;80.67
74811;DHT22;63340;48.404;-4.506;2022-10-16T12:14:43;17.13;80.63
74811;DHT22;63340;48.404;-4.506;2022-10-16T12:22:28;17.13;81.23
74811;DHT22;63340;48.404;-4.506;2022-10-16T12:24:54;17.14;81.09
74811;DHT22;63340;48.404;-4.506;2022-10-16T12:27:31;17.18;81.12
74811;DHT22;63340;48.404;-4.506;2022-10-16T12:30:02;17.20;80.98
74811;DHT22;63340;48.404;-4.506;2022-10-16T12:32:37;17.24;81.54
74811;DHT22;63340;48.404;-4.506;2022-10-16T12:35:05;17.20;81.62
74811;DHT22;63340;48.404;-4.506;2022-10-16T12:37:34;17.21;81.83
74811;DHT22;63340;48.404;-4.506;2022-10-16T12:40:13;17.20;82.21
74811;DHT22;63340;48.404;-4.506;2022-10-16T12:42:40;17.20;81.74
74811;DHT22;63340;48.404;-4.506;2022-10-16T12:47:51;17.21;81.80
74811;DHT22;63340;48.404;-4.506;2022-10-16T12:50:27;17.28;82.73
74811;DHT22;63340;48.404;-4.506;2022-10-16T12:52:53;17.27;82.19
74811;DHT22;63340;48.404;-4.506;2022-10-16T12:55:21;17.27;82.43
74811;DHT22;63340;48.404;-4.506;2022-10-16T13:11:37;17.39;83.92
74811;DHT22;63340;48.404;-4.506;2022-10-16T13:19:46;17.48;83.46
74811;DHT22;63340;48.404;-4.506;2022-10-16T13:22:37;17.45;85.38
74811;DHT22;63340;48.404;-4.506;2022-10-16T13:28:07;17.59;83.73
74811;DHT22;63340;48.404;-4.506;2022-10-16T13:30:52;17.58;85.19
74811;DHT22;63340;48.404;-4.506;2022-10-16T13:33:38;17.62;85.26
74811;DHT22;63340;48.404;-4.506;2022-10-16T13:36:05;17.66;84.57
74811;DHT22;63340;48.404;-4.506;2022-10-16T13:38:33;17.68;84.52
74811;DHT22;63340;48.404;-4.506;2022-10-16T13:41:05;17.69;84.57
74811;DHT22;63340;48.404;-4.506;2022-10-16T13:43:35;17.75;84.62
74811;DHT22;63340;48.404;-4.506;2022-10-16T13:46:04;17.76;85.04
74811;DHT22;63340;48.404;-4.506;2022-10-16T13:48:32;17.79;84.69
74811;DHT22;63340;48.404;-4.506;2022-10-16T13:50:59;17.83;84.86
74811;DHT22;63340;48.404;-4.506;2022-10-16T13:53:24;17.89;83.97
74811;DHT22;63340;48.404;-4.506;2022-10-16T13:55:50;17.93;83.89
74811;DHT22;63340;48.404;-4.506;2022-10-16T13:58:15;17.94;84.14
74811;DHT22;63340;48.404;-4.506;2022-10-16T14:00:53;17.90;84.53
74811;DHT22;63340;48.404;-4.506;2022-10-16T14:03:19;17.93;84.21
74811;DHT22;63340;48.404;-4.506;2022-10-16T14:05:53;17.92;84.65
74811;DHT22;63340;48.404;-4.506;2022-10-16T14:08:20;17.96;84.41
74811;DHT22;63340;48.404;-4.506;2022-10-16T14:10:51;18.02;84.01
74811;DHT22;63340;48.404;-4.506;2022-10-16T14:13:21;18.00;84.18
74811;DHT22;63340;48.404;-4.506;2022-10-16T14:15:51;18.00;84.16
74811;DHT22;63340;48.404;-4.506;2022-10-16T14:18:23;18.00;83.93
74811;DHT22;63340;48.404;-4.506;2022-10-16T14:20:49;18.07;83.80
74811;DHT22;63340;48.404;-4.506;2022-10-16T14:23:30;18.10;83.89
74811;DHT22;63340;48.404;-4.506;2022-10-16T14:28:34;18.06;84.04
74811;DHT22;63340;48.404;-4.506;2022-10-16T14:31:01;18.00;84.10
74811;DHT22;63340;48.404;-4.506;2022-10-16T14:38:38;18.10;83.64
74811;DHT22;63340;48.404;-4.506;2022-10-16T14:41:04;18.09;83.80
74811;DHT22;63340;48.404;-4.506;2022-10-16T14:43:41;18.10;83.67
74811;DHT22;63340;48.404;-4.506;2022-10-16T14:46:15;18.11;83.51
74811;DHT22;63340;48.404;-4.506;2022-10-16T14:48:48;18.18;83.46
74811;DHT22;63340;48.404;-4.506;2022-10-16T14:51:18;18.17;83.82
74811;DHT22;63340;48.404;-4.506;2022-10-16T14:53:45;18.14;83.86
74811;DHT22;63340;48.404;-4.506;2022-10-16T14:56:21;18.13;83.95
74811;DHT22;63340;48.404;-4.506;2022-10-16T14:58:48;18.11;83.85
74811;DHT22;63340;48.404;-4.506;2022-10-16T15:01:14;18.14;83.66
74811;DHT22;63340;48.404;-4.506;2022-10-16T15:03:40;18.18;83.40
74811;DHT22;63340;48.404;-4.506;2022-10-16T15:06:10;18.20;83.21
74811;DHT22;63340;48.404;-4.506;2022-10-16T15:08:36;18.20;83.29
74811;DHT22;63340;48.404;-4.506;2022-10-16T15:11:02;18.24;83.13
74811;DHT22;63340;48.404;-4.506;2022-10-16T15:13:27;18.13;83.62
74811;DHT22;63340;48.404;-4.506;2022-10-16T15:15:53;18.16;83.27
74811;DHT22;63340;48.404;-4.506;2022-10-16T15:18:18;18.16;83.28
74811;DHT22;63340;48.404;-4.506;2022-10-16T15:20:51;18.21;83.24
74811;DHT22;63340;48.404;-4.506;2022-10-16T15:23:21;18.21;83.18
74811;DHT22;63340;48.404;-4.506;2022-10-16T15:25:49;18.21;83.04
74811;DHT22;63340;48.404;-4.506;2022-10-16T15:28:16;18.21;83.13
74811;DHT22;63340;48.404;-4.506;2022-10-16T15:30:42;18.18;83.36
74811;DHT22;63340;48.404;-4.506;2022-10-16T15:33:16;18.14;83.45
74811;DHT22;63340;48.404;-4.506;2022-10-16T15:35:42;18.17;83.51
74811;DHT22;63340;48.404;-4.506;2022-10-16T15:38:12;18.20;83.57
74811;DHT22;63340;48.404;-4.506;2022-10-16T15:40:39;18.17;83.77
74811;DHT22;63340;48.404;-4.506;2022-10-16T15:43:05;18.16;83.82
74811;DHT22;63340;48.404;-4.506;2022-10-16T15:45:30;18.18;83.76
74811;DHT22;63340;48.404;-4.506;2022-10-16T15:47:55;18.14;84.11
74811;DHT22;63340;48.404;-4.506;2022-10-16T15:50:21;18.09;84.40
74811;DHT22;63340;48.404;-4.506;2022-10-16T15:52:46;18.06;84.67
74811;DHT22;63340;48.404;-4.506;2022-10-16T15:55:13;18.03;84.68
74811;DHT22;63340;48.404;-4.506;2022-10-16T15:57:39;18.06;84.75
74811;DHT22;63340;48.404;-4.506;2022-10-16T16:00:09;18.00;84.79
74811;DHT22;63340;48.404;-4.506;2022-10-16T16:02:35;18.00;84.88
74811;DHT22;63340;48.404;-4.506;2022-10-16T16:05:01;18.00;84.70
74811;DHT22;63340;48.404;-4.506;2022-10-16T16:07:27;17.97;84.89
74811;DHT22;63340;48.404;-4.506;2022-10-16T16:09:52;17.99;84.86
74811;DHT22;63340;48.404;-4.506;2022-10-16T16:12:18;17.99;85.01
74811;DHT22;63340;48.404;-4.506;2022-10-16T16:14:43;17.96;85.00
74811;DHT22;63340;48.404;-4.506;2022-10-16T16:17:11;17.97;85.06
74811;DHT22;63340;48.404;-4.506;2022-10-16T16:19:36;18.00;85.00
74811;DHT22;63340;48.404;-4.506;2022-10-16T16:22:02;18.04;84.65
74811;DHT22;63340;48.404;-4.506;2022-10-16T16:24:27;18.04;84.62
74811;DHT22;63340;48.404;-4.506;2022-10-16T16:26:53;18.04;84.90
74811;DHT22;63340;48.404;-4.506;2022-10-16T16:29:18;18.04;84.82
74811;DHT22;63340;48.404;-4.506;2022-10-16T16:31:44;18.06;84.92
74811;DHT22;63340;48.404;-4.506;2022-10-16T16:34:11;18.09;84.72
74811;DHT22;63340;48.404;-4.506;2022-10-16T16:36:36;18.11;84.51
74811;DHT22;63340;48.404;-4.506;2022-10-16T16:39:02;18.04;84.98
74811;DHT22;63340;48.404;-4.506;2022-10-16T16:41:29;18.04;84.80
74811;DHT22;63340;48.404;-4.506;2022-10-16T16:43:56;18.06;84.79
74811;DHT22;63340;48.404;-4.506;2022-10-16T16:46:25;18.07;84.90
74811;DHT22;63340;48.404;-4.506;2022-10-16T16:48:51;18.02;85.07
74811;DHT22;63340;48.404;-4.506;2022-10-16T16:51:18;18.06;84.83
74811;DHT22;63340;48.404;-4.506;2022-10-16T16:53:52;18.09;85.06
74811;DHT22;63340;48.404;-4.506;2022-10-16T16:56:18;18.09;85.12
74811;DHT22;63340;48.404;-4.506;2022-10-16T16:58:52;18.10;85.09
74811;DHT22;63340;48.404;-4.506;2022-10-16T17:01:18;18.11;85.23
74811;DHT22;63340;48.404;-4.506;2022-10-16T17:03:44;18.06;85.22
74811;DHT22;63340;48.404;-4.506;2022-10-16T17:06:11;18.02;85.31
74811;DHT22;63340;48.404;-4.506;2022-10-16T17:08:38;17.96;85.45
74811;DHT22;63340;48.404;-4.506;2022-10-16T17:11:04;17.94;85.63
74811;DHT22;63340;48.404;-4.506;2022-10-16T17:13:32;17.87;86.01
74811;DHT22;63340;48.404;-4.506;2022-10-16T17:16:04;17.86;85.99
74811;DHT22;63340;48.404;-4.506;2022-10-16T17:18:30;17.86;85.94
74811;DHT22;63340;48.404;-4.506;2022-10-16T17:21:00;17.90;85.71
74811;DHT22;63340;48.404;-4.506;2022-10-16T17:23:26;17.93;85.46
74811;DHT22;63340;48.404;-4.506;2022-10-16T17:25:53;17.97;85.24
74811;DHT22;63340;48.404;-4.506;2022-10-16T17:28:18;17.93;85.30
74811;DHT22;63340;48.404;-4.506;2022-10-16T17:30:44;17.92;85.22
74811;DHT22;63340;48.404;-4.506;2022-10-16T17:33:10;17.90;85.08
74811;DHT22;63340;48.404;-4.506;2022-10-16T17:35:45;17.90;85.22
74811;DHT22;63340;48.404;-4.506;2022-10-16T17:38:12;17.86;85.39
74811;DHT22;63340;48.404;-4.506;2022-10-16T17:40:39;17.87;85.71
74811;DHT22;63340;48.404;-4.506;2022-10-16T17:43:05;17.89;85.66
74811;DHT22;63340;48.404;-4.506;2022-10-16T17:45:31;17.93;85.47
74811;DHT22;63340;48.404;-4.506;2022-10-16T17:48:00;17.89;85.66